Terminal Aerodrome Forecast
Issued by NWS

Home | Current Version | Previous Version | Text Only | Print | Product List | Glossary On
Versions: 1 2 3 4 5 6 7 8 9 10 11 12 13 14 15 16 17 18 19 20 21 22 23 24 25
000
FTUS44 KBMX 222300
TAFTOI
TAF
KTOI 222326Z 2300/2324 VRB05KT P6SM VCTS SCT040CB BKN090
     FM230300 00000KT 6SM BR BKN250
     FM230900 00000KT 4SM BR SCT007 SCT150
      TEMPO 2310/2313 BKN007
     FM231500 22004KT P6SM BKN025
     FM231900 24005KT P6SM VCTS BKN040CB=

USA.gov is the U.S. government's official web portal to all federal, state and local government web resources and services.